Time;durP1;ratioP1;P1;durP2;ratioP2;P2;SDS_P1;SDS_P2;PMS_P1;PMS_P2;Temp;Humidity;BMP_temperature;BMP_pressure;BME280_temperature;BME280_humidity;BME280_pressure;Samples;Min_cycle;Max_cycle;Signal;HPM_P1;HPM_P2
2024/03/03 00:01:03;;;;;;;13.20;7.77;;;11.50;36.70;;;;;;5052363;28;20404;-72
2024/03/03 00:03:28;;;;;;;13.43;7.95;;;11.40;36.60;;;;;;5052268;28;20405;-74
2024/03/03 00:05:54;;;;;;;12.33;6.60;;;11.50;36.70;;;;;;5051714;28;20572;-73
2024/03/03 00:08:21;;;;;;;12.80;7.20;;;11.30;36.60;;;;;;5051948;28;20389;-72
2024/03/03 00:10:47;;;;;;;15.85;8.00;;;11.20;37.30;;;;;;5052574;28;20774;-73
2024/03/03 00:13:13;;;;;;;13.80;7.80;;;11.10;38.00;;;;;;5055539;28;20470;-71
2024/03/03 00:15:38;;;;;;;11.90;7.70;;;11.10;38.10;;;;;;5069703;28;20420;-71
2024/03/03 00:18:05;;;;;;;15.77;8.60;;;11.10;38.10;;;;;;5073831;28;20471;-70
2024/03/03 00:20:30;;;;;;;11.17;7.50;;;11.20;37.50;;;;;;5073366;28;20397;-71
2024/03/03 00:22:56;;;;;;;13.67;6.67;;;11.10;37.50;;;;;;5071784;28;20465;-71
2024/03/03 00:25:21;;;;;;;11.70;7.17;;;11.20;37.40;;;;;;5073330;28;20397;-72
2024/03/03 00:27:47;;;;;;;12.00;6.40;;;11.20;37.20;;;;;;5070843;28;20414;-71
2024/03/03 00:30:13;;;;;;;11.15;6.40;;;11.20;37.10;;;;;;5066203;28;20393;-71
2024/03/03 00:32:38;;;;;;;10.30;6.18;;;11.10;37.00;;;;;;5067041;28;20400;-72
2024/03/03 00:35:04;;;;;;;11.82;7.20;;;11.20;36.80;;;;;;5068232;28;20380;-73
2024/03/03 00:37:30;;;;;;;15.85;7.35;;;11.20;36.90;;;;;;5051231;28;20470;-72
2024/03/03 00:39:55;;;;;;;14.40;7.80;;;11.00;37.20;;;;;;5052257;28;20543;-73
2024/03/03 00:42:21;;;;;;;10.32;6.60;;;10.80;38.10;;;;;;5053603;28;20405;-71
2024/03/03 00:44:46;;;;;;;10.07;6.77;;;10.90;38.00;;;;;;5056826;28;20381;-72
2024/03/03 00:47:12;;;;;;;12.03;7.00;;;10.90;37.40;;;;;;5049066;28;20374;-72
2024/03/03 00:49:38;;;;;;;12.20;7.33;;;10.80;37.80;;;;;;5068168;28;20441;-72
2024/03/03 00:52:03;;;;;;;10.17;6.40;;;11.00;37.40;;;;;;5051639;28;20473;-71
2024/03/03 00:54:29;;;;;;;11.67;6.87;;;11.00;37.40;;;;;;5051706;28;20389;-73
2024/03/03 00:56:55;;;;;;;11.00;6.23;;;11.10;37.00;;;;;;5051058;28;20505;-72
2024/03/03 00:59:20;;;;;;;9.73;6.20;;;11.00;37.10;;;;;;5051285;28;20381;-73
2024/03/03 01:01:46;;;;;;;12.73;6.43;;;10.90;37.60;;;;;;5051308;28;20438;-72
2024/03/03 01:04:12;;;;;;;9.68;6.25;;;10.80;37.70;;;;;;5051164;28;20479;-72
2024/03/03 01:06:38;;;;;;;11.10;7.07;;;10.80;38.00;;;;;;5050751;28;20385;-72
2024/03/03 01:09:04;;;;;;;12.85;6.90;;;11.00;37.70;;;;;;5050816;28;20392;-72
2024/03/03 01:11:29;;;;;;;11.05;6.47;;;11.10;37.60;;;;;;5054169;28;20380;-72
2024/03/03 01:13:55;;;;;;;12.18;6.80;;;11.10;36.60;;;;;;5036630;28;20396;-71
2024/03/03 01:16:21;;;;;;;12.13;6.90;;;11.10;37.30;;;;;;5054504;28;20464;-73
2024/03/03 01:18:46;;;;;;;13.33;7.50;;;11.10;36.60;;;;;;5054616;28;20397;-73
2024/03/03 01:21:12;;;;;;;12.20;6.97;;;11.20;37.00;;;;;;5054582;28;20381;-71
2024/03/03 01:23:37;;;;;;;11.80;6.53;;;11.40;35.80;;;;;;5054680;28;20539;-72
2024/03/03 01:26:03;;;;;;;12.50;7.18;;;11.40;36.10;;;;;;5054971;28;20407;-72
2024/03/03 01:28:28;;;;;;;12.43;6.95;;;11.40;36.40;;;;;;5054489;28;20384;-72
2024/03/03 01:30:54;;;;;;;10.57;6.22;;;11.50;35.70;;;;;;5054542;28;20408;-72
2024/03/03 01:33:20;;;;;;;10.00;5.53;;;11.60;34.90;;;;;;5037463;28;20389;-72
2024/03/03 01:35:45;;;;;;;10.97;6.30;;;11.70;34.60;;;;;;5055499;28;20729;-73
2024/03/03 01:38:11;;;;;;;10.93;6.20;;;11.60;34.80;;;;;;5054366;28;20420;-71
2024/03/03 01:40:36;;;;;;;9.85;6.35;;;11.60;35.10;;;;;;5055567;28;20382;-71
2024/03/03 01:43:04;;;;;;;8.82;5.50;;;11.70;34.60;;;;;;5037416;28;20405;-72
2024/03/03 01:45:30;;;;;;;10.25;6.60;;;11.70;34.20;;;;;;5054339;28;20403;-73
2024/03/03 01:47:55;;;;;;;9.38;6.45;;;11.60;34.90;;;;;;5053976;28;20377;-73
2024/03/03 01:50:22;;;;;;;10.50;5.72;;;11.70;34.80;;;;;;5054033;28;20392;-73
2024/03/03 01:52:50;;;;;;;10.00;5.90;;;11.60;34.70;;;;;;5054468;28;20409;-73
2024/03/03 01:55:21;;;;;;;10.18;5.75;;;11.60;34.80;;;;;;5054761;28;20443;-73
2024/03/03 01:57:50;;;;;;;9.73;5.60;;;11.50;35.20;;;;;;5054942;28;20558;-72
2024/03/03 02:00:15;;;;;;;9.23;5.30;;;11.40;34.90;;;;;;5054550;28;20390;-75
2024/03/03 02:02:43;;;;;;;11.48;5.80;;;11.40;35.10;;;;;;5054050;28;20408;-72
2024/03/03 02:05:11;;;;;;;11.73;5.82;;;11.50;35.30;;;;;;5053820;28;20385;-72
2024/03/03 02:07:37;;;;;;;11.00;6.40;;;11.50;35.00;;;;;;5035768;28;20736;-73
2024/03/03 02:10:02;;;;;;;9.98;5.90;;;11.40;35.50;;;;;;5054149;28;20399;-73
2024/03/03 02:12:28;;;;;;;9.70;5.30;;;11.40;35.10;;;;;;5054089;28;20413;-72
2024/03/03 02:14:55;;;;;;;9.95;6.55;;;11.30;35.40;;;;;;5068914;22;20460;-75
2024/03/03 02:17:20;;;;;;;10.73;5.47;;;11.40;35.70;;;;;;5059441;28;20389;-76
2024/03/03 02:19:46;;;;;;;11.90;6.50;;;11.30;35.20;;;;;;5055217;28;20373;-76
2024/03/03 02:22:11;;;;;;;11.43;5.78;;;11.20;36.10;;;;;;5055135;28;20397;-77
2024/03/03 02:24:37;;;;;;;8.63;5.67;;;11.10;36.40;;;;;;5056536;28;20389;-76
2024/03/03 02:27:03;;;;;;;10.27;5.33;;;10.90;36.70;;;;;;5057858;28;20400;-77
2024/03/03 02:29:30;;;;;;;9.00;5.40;;;10.80;37.20;;;;;;5057934;28;20428;-77
2024/03/03 02:31:56;;;;;;;9.65;5.80;;;10.70;37.70;;;;;;5055032;28;20477;-76
2024/03/03 02:34:21;;;;;;;11.25;6.47;;;10.50;38.10;;;;;;5058395;28;20879;-76
2024/03/03 02:36:47;;;;;;;9.63;5.50;;;10.40;38.40;;;;;;5056991;28;20382;-76
2024/03/03 02:39:15;;;;;;;9.00;5.32;;;10.30;38.70;;;;;;5066128;28;20386;-75
2024/03/03 02:41:40;;;;;;;8.13;5.20;;;10.30;39.20;;;;;;5072674;28;20378;-76
2024/03/03 02:44:06;;;;;;;9.80;5.57;;;10.10;39.80;;;;;;5072837;28;20409;-76
2024/03/03 02:46:32;;;;;;;10.02;5.70;;;10.10;40.10;;;;;;5075699;28;20430;-76
2024/03/03 02:48:58;;;;;;;10.65;6.28;;;10.10;40.90;;;;;;5056440;28;20389;-78
2024/03/03 02:51:26;;;;;;;10.88;6.47;;;10.10;40.50;;;;;;5058794;28;20449;-77
2024/03/03 02:53:52;;;;;;;10.60;6.17;;;9.90;40.90;;;;;;5058318;28;20476;-77
2024/03/03 02:56:18;;;;;;;12.75;6.03;;;9.90;41.40;;;;;;5056998;28;20404;-77
2024/03/03 02:58:43;;;;;;;10.38;6.25;;;9.90;41.90;;;;;;5054376;28;20393;-76
2024/03/03 03:01:09;;;;;;;11.60;6.43;;;9.90;41.80;;;;;;5057177;28;20393;-78
2024/03/03 03:03:35;;;;;;;13.23;6.40;;;9.90;42.00;;;;;;5057442;28;20464;-77
2024/03/03 03:06:00;;;;;;;11.23;6.30;;;9.80;42.50;;;;;;5055939;28;20393;-77
2024/03/03 03:08:26;;;;;;;11.17;5.83;;;9.90;42.30;;;;;;5053854;28;20442;-77
2024/03/03 03:10:51;;;;;;;14.05;7.28;;;9.90;42.40;;;;;;5056047;28;20472;-76
2024/03/03 03:13:17;;;;;;;13.52;6.65;;;9.80;42.70;;;;;;5055094;28;20385;-76
2024/03/03 03:15:42;;;;;;;12.90;6.55;;;9.70;43.10;;;;;;5055354;28;20395;-76
2024/03/03 03:18:08;;;;;;;11.70;5.77;;;9.80;43.10;;;;;;5058178;28;20397;-76
2024/03/03 03:20:34;;;;;;;10.00;6.13;;;9.70;43.40;;;;;;5061389;28;20413;-76
2024/03/03 03:22:59;;;;;;;11.88;6.35;;;9.70;43.80;;;;;;5061675;28;20400;-76
2024/03/03 03:25:25;;;;;;;12.40;6.70;;;9.70;43.60;;;;;;5063180;28;20457;-76
2024/03/03 03:27:51;;;;;;;11.10;6.10;;;9.70;43.90;;;;;;5062601;28;20401;-77
2024/03/03 03:30:16;;;;;;;10.30;6.30;;;9.80;43.80;;;;;;5061649;28;20423;-76
2024/03/03 03:32:42;;;;;;;12.30;7.17;;;9.80;43.90;;;;;;5054368;28;20469;-77
2024/03/03 03:35:08;;;;;;;12.20;6.60;;;9.80;43.60;;;;;;5054084;28;20475;-77
2024/03/03 03:37:33;;;;;;;13.90;7.20;;;9.90;43.10;;;;;;5051814;28;20808;-76
2024/03/03 03:39:59;;;;;;;11.17;6.80;;;10.00;43.20;;;;;;5053803;28;20384;-76
2024/03/03 03:42:24;;;;;;;14.20;7.07;;;10.00;43.10;;;;;;5053993;28;20397;-78
2024/03/03 03:44:50;;;;;;;12.63;7.03;;;10.10;42.70;;;;;;5053961;28;20390;-75
2024/03/03 03:47:15;;;;;;;13.63;7.55;;;10.10;42.80;;;;;;5053709;28;20783;-78
2024/03/03 03:49:41;;;;;;;11.43;6.72;;;10.20;42.10;;;;;;5052725;28;20745;-76
2024/03/03 03:52:07;;;;;;;15.37;7.87;;;10.20;41.90;;;;;;5053930;28;20805;-76
2024/03/03 03:54:33;;;;;;;13.05;7.90;;;10.20;42.20;;;;;;5053537;28;20395;-76
2024/03/03 03:56:58;;;;;;;15.05;7.57;;;10.30;42.30;;;;;;5052686;28;20456;-76
2024/03/03 03:59:25;;;;;;;14.55;8.30;;;10.30;42.10;;;;;;5052474;28;20475;-77
2024/03/03 04:01:52;;;;;;;15.02;7.93;;;10.30;42.40;;;;;;5051229;28;20389;-75
2024/03/03 04:04:17;;;;;;;14.87;7.80;;;10.20;42.00;;;;;;5053970;28;21034;-77
2024/03/03 04:06:43;;;;;;;15.17;7.73;;;10.20;41.90;;;;;;5052086;28;20394;-77
2024/03/03 04:09:08;;;;;;;14.63;8.10;;;10.20;42.10;;;;;;5051812;28;20405;-76
2024/03/03 04:11:34;;;;;;;15.60;8.00;;;10.30;42.10;;;;;;5051789;28;20390;-78
2024/03/03 04:14:00;;;;;;;17.33;8.25;;;10.30;42.30;;;;;;5053748;28;20381;-76
2024/03/03 04:16:26;;;;;;;15.35;7.60;;;10.30;42.60;;;;;;5052372;28;20944;-75
2024/03/03 04:18:51;;;;;;;12.80;7.73;;;10.20;42.50;;;;;;5053762;28;20393;-77
2024/03/03 04:21:17;;;;;;;14.03;8.10;;;10.20;42.60;;;;;;5053414;28;20397;-75
2024/03/03 04:23:42;;;;;;;14.60;8.10;;;10.20;43.30;;;;;;5053861;28;20401;-78
2024/03/03 04:26:09;;;;;;;19.80;9.02;;;10.20;43.20;;;;;;5052611;28;20398;-79
2024/03/03 04:28:35;;;;;;;15.30;8.80;;;10.20;43.20;;;;;;5053792;28;20385;-77
2024/03/03 04:31:06;;;;;;;13.13;8.00;;;10.10;43.80;;;;;;5053464;28;20860;-78
2024/03/03 04:33:33;;;;;;;15.13;8.23;;;10.10;43.80;;;;;;5054994;28;20385;-77
2024/03/03 04:35:59;;;;;;;15.73;9.60;;;10.00;43.80;;;;;;5052819;28;20484;-77
2024/03/03 04:38:25;;;;;;;17.10;8.65;;;10.00;44.00;;;;;;5053243;28;20459;-77
2024/03/03 04:40:50;;;;;;;17.87;9.80;;;10.00;44.20;;;;;;5051862;28;20437;-77
2024/03/03 04:43:16;;;;;;;16.87;9.43;;;10.00;44.50;;;;;;5051848;28;20412;-77
2024/03/03 04:45:41;;;;;;;17.27;9.70;;;10.00;44.60;;;;;;5051431;28;20389;-75
2024/03/03 04:48:07;;;;;;;16.52;9.52;;;10.10;44.40;;;;;;5051382;28;20879;-76
2024/03/03 04:50:33;;;;;;;19.90;10.10;;;10.00;44.60;;;;;;5051038;28;20778;-75
2024/03/03 04:52:58;;;;;;;16.93;9.80;;;10.10;44.90;;;;;;5051951;28;20382;-76
2024/03/03 04:55:24;;;;;;;18.87;9.77;;;10.00;45.00;;;;;;5051654;28;20427;-77
2024/03/03 04:57:51;;;;;;;18.23;9.53;;;10.00;44.80;;;;;;5052793;28;20388;-77
2024/03/03 05:00:17;;;;;;;20.63;10.32;;;10.10;44.70;;;;;;5053359;28;20425;-77
2024/03/03 05:02:43;;;;;;;16.85;9.45;;;10.10;44.50;;;;;;5056119;28;20404;-77
2024/03/03 05:05:09;;;;;;;21.25;10.07;;;10.20;44.30;;;;;;5061029;28;20409;-77
2024/03/03 05:07:34;;;;;;;19.27;10.20;;;10.10;44.40;;;;;;5061375;28;20390;-77
2024/03/03 05:10:00;;;;;;;21.23;10.50;;;10.10;44.40;;;;;;5055885;28;20388;-77
2024/03/03 05:12:26;;;;;;;21.43;10.70;;;10.10;44.40;;;;;;5058273;28;20420;-76
2024/03/03 05:14:51;;;;;;;19.30;10.30;;;10.10;44.90;;;;;;5055303;28;20397;-78
2024/03/03 05:17:17;;;;;;;20.83;10.90;;;10.10;44.80;;;;;;5061207;28;20389;-77
2024/03/03 05:19:43;;;;;;;19.80;10.70;;;10.20;44.50;;;;;;5057878;28;20469;-78
2024/03/03 05:22:09;;;;;;;18.33;10.60;;;10.20;44.40;;;;;;5057004;28;20481;-76
2024/03/03 05:24:34;;;;;;;22.17;10.90;;;10.40;43.90;;;;;;5053642;28;20480;-76
2024/03/03 05:27:00;;;;;;;17.95;10.55;;;10.40;43.90;;;;;;5052953;28;20898;-76
2024/03/03 05:29:28;;;;;;;17.43;9.80;;;10.30;44.00;;;;;;5051521;28;20381;-75
2024/03/03 05:31:54;;;;;;;18.50;10.40;;;10.20;44.50;;;;;;5056686;28;20416;-75
2024/03/03 05:34:21;;;;;;;18.40;10.27;;;10.10;45.20;;;;;;5055373;28;20844;-77
2024/03/03 05:36:47;;;;;;;20.10;10.60;;;10.10;45.20;;;;;;5054673;28;20431;-77
2024/03/03 05:39:13;;;;;;;18.08;10.07;;;10.10;45.20;;;;;;5052331;28;20393;-75
2024/03/03 05:41:39;;;;;;;20.15;11.00;;;10.10;45.30;;;;;;5051189;28;20393;-77
2024/03/03 05:44:07;;;;;;;20.83;10.80;;;10.10;45.90;;;;;;5052351;28;20397;-78
2024/03/03 05:46:38;;;;;;;18.35;10.60;;;10.10;45.60;;;;;;5049374;28;20393;-76
2024/03/03 05:49:05;;;;;;;20.30;10.80;;;10.20;45.20;;;;;;5050693;28;20427;-76
2024/03/03 05:51:31;;;;;;;20.55;11.20;;;10.10;45.30;;;;;;5050494;28;20769;-77
2024/03/03 05:53:56;;;;;;;19.15;9.82;;;10.10;45.30;;;;;;5051143;28;20436;-76
2024/03/03 05:56:22;;;;;;;21.43;12.07;;;10.10;45.30;;;;;;5052718;28;20852;-77
2024/03/03 05:58:48;;;;;;;22.03;10.83;;;10.10;45.60;;;;;;5056596;28;20417;-76
2024/03/03 06:01:14;;;;;;;23.80;11.70;;;10.10;45.50;;;;;;5070829;28;20397;-74
2024/03/03 06:03:40;;;;;;;23.30;12.03;;;10.10;45.60;;;;;;5078798;28;20432;-75
2024/03/03 06:06:08;;;;;;;22.70;11.40;;;10.10;45.70;;;;;;5077709;28;20473;-76
2024/03/03 06:08:34;;;;;;;22.37;11.97;;;10.20;45.70;;;;;;5078676;28;20373;-74
2024/03/03 06:11:00;;;;;;;21.77;11.63;;;10.10;45.60;;;;;;5078823;28;20397;-74
2024/03/03 06:13:26;;;;;;;21.02;11.57;;;10.20;45.50;;;;;;5078869;28;20378;-74
2024/03/03 06:15:51;;;;;;;22.20;12.15;;;10.30;45.70;;;;;;5078718;28;20415;-74
2024/03/03 06:18:17;;;;;;;23.77;12.70;;;10.20;45.80;;;;;;5078680;28;20394;-74
2024/03/03 06:20:43;;;;;;;23.08;12.50;;;10.30;45.10;;;;;;5078686;28;20420;-74
2024/03/03 06:23:08;;;;;;;22.63;12.00;;;10.30;45.30;;;;;;5078711;28;20412;-75
2024/03/03 06:25:34;;;;;;;22.50;11.50;;;10.20;45.40;;;;;;5078854;28;20503;-74
2024/03/03 06:27:59;;;;;;;21.87;12.20;;;10.20;45.90;;;;;;5078130;28;20400;-74
2024/03/03 06:30:25;;;;;;;19.13;11.23;;;10.20;45.60;;;;;;5078271;28;20449;-74
2024/03/03 06:32:51;;;;;;;22.45;12.07;;;10.20;45.80;;;;;;5078721;28;20403;-74
2024/03/03 06:35:17;;;;;;;22.08;12.18;;;10.20;45.70;;;;;;5077699;28;20393;-74
2024/03/03 06:37:43;;;;;;;20.77;11.45;;;10.30;45.10;;;;;;5078033;28;20444;-73
2024/03/03 06:40:10;;;;;;;19.00;11.30;;;10.20;45.50;;;;;;5078233;28;20377;-76
2024/03/03 06:42:41;;;;;;;20.00;11.85;;;10.30;45.30;;;;;;5077789;28;20405;-75
2024/03/03 06:45:08;;;;;;;22.67;12.45;;;10.30;45.30;;;;;;5077258;28;20385;-76
2024/03/03 06:47:34;;;;;;;23.50;12.50;;;10.30;45.30;;;;;;5078095;28;20420;-73
2024/03/03 06:50:00;;;;;;;19.93;11.30;;;10.50;45.00;;;;;;5078218;28;20442;-76
2024/03/03 06:52:26;;;;;;;21.60;11.55;;;10.70;43.40;;;;;;5078092;28;20397;-73
2024/03/03 06:54:53;;;;;;;19.38;10.93;;;10.70;43.50;;;;;;5077140;28;20427;-74
2024/03/03 06:57:19;;;;;;;22.63;11.98;;;10.70;43.50;;;;;;5064948;28;20464;-77
2024/03/03 06:59:45;;;;;;;21.25;11.88;;;10.70;43.30;;;;;;5057188;28;20451;-77
2024/03/03 07:02:10;;;;;;;22.23;11.50;;;10.70;43.20;;;;;;5058694;28;20385;-76
2024/03/03 07:04:36;;;;;;;22.63;11.17;;;10.70;43.40;;;;;;5059718;28;20417;-75
2024/03/03 07:07:02;;;;;;;19.73;11.40;;;10.90;42.50;;;;;;5058830;28;20378;-78
2024/03/03 07:09:28;;;;;;;21.17;12.13;;;11.00;42.10;;;;;;5058781;28;20455;-77
2024/03/03 07:11:54;;;;;;;22.70;12.40;;;11.10;41.90;;;;;;5055045;28;20381;-77
2024/03/03 07:14:21;;;;;;;22.20;11.67;;;11.20;41.40;;;;;;5054390;28;20875;-77
2024/03/03 07:16:47;;;;;;;19.73;11.65;;;11.30;41.00;;;;;;5057887;28;20397;-77
2024/03/03 07:19:13;;;;;;;20.55;12.00;;;11.20;41.10;;;;;;5053679;28;20732;-78
2024/03/03 07:21:39;;;;;;;20.52;11.50;;;11.20;41.50;;;;;;5056234;28;20390;-76
2024/03/03 07:24:05;;;;;;;25.02;12.48;;;11.20;41.30;;;;;;5056084;28;20961;-77
2024/03/03 07:26:30;;;;;;;19.95;11.15;;;11.30;41.10;;;;;;5055752;28;20425;-76
2024/03/03 07:28:56;;;;;;;21.50;12.02;;;11.40;40.00;;;;;;5056526;28;20389;-78
2024/03/03 07:31:22;;;;;;;20.85;11.35;;;11.40;39.90;;;;;;5055852;28;20386;-76
2024/03/03 07:33:48;;;;;;;20.17;11.63;;;11.50;40.40;;;;;;5056320;28;20477;-77
2024/03/03 07:36:14;;;;;;;21.90;11.40;;;11.60;39.60;;;;;;5059481;28;20385;-77
2024/03/03 07:38:39;;;;;;;20.73;11.20;;;11.50;39.90;;;;;;5057928;28;20887;-76
2024/03/03 07:41:05;;;;;;;19.70;12.20;;;11.60;39.60;;;;;;5056608;28;20405;-76
2024/03/03 07:43:30;;;;;;;19.83;11.80;;;11.60;39.60;;;;;;5056434;28;20429;-77
2024/03/03 07:45:56;;;;;;;24.55;12.63;;;11.60;39.30;;;;;;5061398;28;20394;-77
2024/03/03 07:48:21;;;;;;;24.60;12.40;;;11.80;39.00;;;;;;5059422;28;20496;-77
2024/03/03 07:50:47;;;;;;;19.93;11.70;;;11.90;38.50;;;;;;5053689;28;20732;-76
2024/03/03 07:53:13;;;;;;;20.40;12.13;;;12.00;38.20;;;;;;5055039;28;20423;-77
2024/03/03 07:55:39;;;;;;;20.93;10.90;;;12.10;37.80;;;;;;5051718;28;20504;-75
2024/03/03 07:58:04;;;;;;;19.70;12.00;;;12.20;37.30;;;;;;5058825;28;20399;-77
2024/03/03 08:00:35;;;;;;;20.88;11.75;;;12.40;37.30;;;;;;5059849;28;20408;-77
2024/03/03 08:03:02;;;;;;;21.90;12.07;;;12.50;36.50;;;;;;5061807;28;20407;-76
2024/03/03 08:05:29;;;;;;;19.87;11.20;;;12.70;36.00;;;;;;5056081;28;20764;-77
2024/03/03 08:07:55;;;;;;;20.27;10.90;;;12.90;35.20;;;;;;5052794;28;20385;-77
2024/03/03 08:10:20;;;;;;;19.13;11.40;;;12.90;35.20;;;;;;5053877;28;20679;-76
2024/03/03 08:12:46;;;;;;;21.05;11.77;;;13.40;33.40;;;;;;5053491;28;20388;-77
2024/03/03 08:15:11;;;;;;;20.75;11.25;;;13.80;32.00;;;;;;5052437;28;20760;-76
2024/03/03 08:17:37;;;;;;;23.10;12.50;;;13.90;31.80;;;;;;5051699;28;20389;-77
2024/03/03 08:20:03;;;;;;;17.87;11.13;;;13.80;31.50;;;;;;5051030;28;20409;-76
2024/03/03 08:22:29;;;;;;;24.85;12.40;;;13.60;32.20;;;;;;5051778;28;20973;-77
2024/03/03 08:24:54;;;;;;;20.70;12.77;;;13.40;32.40;;;;;;5052059;28;20884;-75
2024/03/03 08:27:21;;;;;;;21.50;11.95;;;13.50;32.70;;;;;;5051217;28;20377;-76
2024/03/03 08:29:46;;;;;;;18.88;11.40;;;13.60;32.70;;;;;;5055872;28;20381;-75
2024/03/03 08:32:12;;;;;;;19.17;11.57;;;13.60;32.50;;;;;;5052257;28;20817;-76
2024/03/03 08:34:37;;;;;;;17.80;11.30;;;13.70;32.20;;;;;;5060353;28;20465;-76
2024/03/03 08:37:03;;;;;;;20.38;11.70;;;13.80;32.00;;;;;;5065685;28;20378;-76
2024/03/03 08:39:29;;;;;;;20.60;11.30;;;13.90;31.90;;;;;;5052161;28;20386;-76
2024/03/03 08:41:54;;;;;;;19.43;11.53;;;14.00;31.40;;;;;;5062615;28;20414;-75
2024/03/03 08:44:20;;;;;;;18.57;11.07;;;14.10;31.10;;;;;;5071038;28;20478;-75
2024/03/03 08:46:47;;;;;;;22.40;12.30;;;14.10;30.90;;;;;;5070793;28;20372;-76
2024/03/03 08:49:12;;;;;;;21.75;12.05;;;14.10;30.80;;;;;;5058175;28;20397;-75
2024/03/03 08:51:40;;;;;;;22.80;11.88;;;14.20;30.80;;;;;;5051117;28;20464;-76
2024/03/03 08:54:06;;;;;;;20.92;11.32;;;14.20;30.50;;;;;;5050975;28;20875;-77
2024/03/03 08:56:32;;;;;;;22.52;11.82;;;14.30;30.40;;;;;;5050769;28;20390;-75
2024/03/03 08:58:57;;;;;;;20.77;11.30;;;14.30;30.30;;;;;;5052361;28;20750;-74
2024/03/03 09:01:23;;;;;;;19.33;11.40;;;14.30;30.10;;;;;;5059680;28;20391;-75
2024/03/03 09:03:49;;;;;;;22.10;12.43;;;14.30;30.20;;;;;;5070786;28;20465;-76
2024/03/03 09:06:14;;;;;;;20.55;11.80;;;14.40;30.50;;;;;;5056533;28;20443;-77
2024/03/03 09:08:41;;;;;;;20.13;11.30;;;14.50;30.70;;;;;;5051340;28;20385;-76
2024/03/03 09:11:07;;;;;;;21.08;11.43;;;14.80;28.80;;;;;;5051459;28;20413;-76
2024/03/03 09:13:34;;;;;;;21.17;11.90;;;14.80;28.80;;;;;;5051296;28;20911;-75
2024/03/03 09:16:00;;;;;;;19.15;10.70;;;14.70;28.50;;;;;;5055863;28;20455;-74
2024/03/03 09:18:25;;;;;;;19.50;11.97;;;14.50;29.20;;;;;;5061905;28;20401;-73
2024/03/03 09:20:51;;;;;;;17.93;10.70;;;14.30;29.80;;;;;;5056896;28;20393;-73
2024/03/03 09:23:16;;;;;;;19.45;10.98;;;14.20;30.20;;;;;;5060870;28;20420;-72
2024/03/03 09:25:42;;;;;;;19.67;11.40;;;14.10;30.40;;;;;;5052351;28;20413;-73
2024/03/03 09:28:07;;;;;;;19.67;11.77;;;14.10;30.60;;;;;;5049052;28;20385;-72
2024/03/03 09:30:34;;;;;;;18.50;11.85;;;14.10;30.90;;;;;;5065440;28;20440;-71
2024/03/03 09:32:59;;;;;;;18.30;11.73;;;14.10;30.70;;;;;;5054669;28;20442;-70
2024/03/03 09:35:26;;;;;;;22.73;12.40;;;14.20;30.50;;;;;;5062770;28;20941;-72
2024/03/03 09:37:52;;;;;;;21.08;11.60;;;14.30;30.10;;;;;;5074453;28;20395;-71
2024/03/03 09:40:19;;;;;;;18.30;10.47;;;14.40;29.90;;;;;;5073888;28;20387;-72
2024/03/03 09:42:45;;;;;;;19.58;11.20;;;14.40;29.50;;;;;;5060152;28;20420;-71
2024/03/03 09:45:15;;;;;;;21.45;11.30;;;14.40;29.40;;;;;;5071452;28;20396;-70
2024/03/03 09:47:41;;;;;;;23.33;11.77;;;14.50;29.60;;;;;;5060451;28;20474;-70
2024/03/03 09:50:15;;;;;;;20.15;11.40;;;14.40;29.80;;;;;;5054950;28;20381;-76
2024/03/03 09:52:42;;;;;;;21.65;12.35;;;14.40;30.10;;;;;;5057791;28;20397;-77
2024/03/03 09:55:11;;;;;;;19.13;11.93;;;14.50;30.10;;;;;;5074740;28;20870;-71
2024/03/03 09:57:40;;;;;;;21.63;12.90;;;14.50;29.60;;;;;;5074248;28;20394;-71
2024/03/03 10:00:09;;;;;;;21.70;12.40;;;14.60;29.10;;;;;;5068454;28;20393;-71
2024/03/03 10:02:39;;;;;;;23.55;12.30;;;14.70;28.80;;;;;;5054778;28;20401;-70
2024/03/03 10:05:07;;;;;;;20.10;12.27;;;14.70;28.60;;;;;;5058624;28;20407;-71
2024/03/03 10:07:43;;;;;;;21.77;12.50;;;14.80;28.60;;;;;;5074210;28;20390;-70
2024/03/03 10:10:09;;;;;;;23.77;12.95;;;14.90;28.00;;;;;;5073143;28;20390;-70
2024/03/03 10:12:35;;;;;;;19.88;12.07;;;14.80;28.10;;;;;;5067566;28;20393;-70
2024/03/03 10:15:02;;;;;;;23.13;12.52;;;14.80;28.00;;;;;;5057599;28;20423;-69
2024/03/03 10:17:28;;;;;;;22.40;12.27;;;14.70;28.20;;;;;;5057720;28;20400;-71
2024/03/03 10:20:06;;;;;;;27.13;13.02;;;14.60;28.70;;;;;;5054097;28;20389;-71
2024/03/03 10:22:32;;;;;;;26.55;13.60;;;14.50;29.00;;;;;;5054528;28;20451;-70
2024/03/03 10:25:25;;;;;;;20.67;13.00;;;14.50;29.20;;;;;;5056582;28;20381;-71
2024/03/03 10:27:52;;;;;;;20.58;12.25;;;14.60;28.80;;;;;;5056689;28;20771;-69
2024/03/03 10:30:21;;;;;;;21.93;12.77;;;15.00;27.90;;;;;;5060811;28;20474;-70
2024/03/03 10:32:48;;;;;;;24.55;13.38;;;14.90;27.80;;;;;;5065764;28;20705;-71
2024/03/03 10:35:15;;;;;;;21.63;11.48;;;14.80;28.10;;;;;;5058515;28;20785;-71
2024/03/03 10:37:55;;;;;;;21.17;11.82;;;15.00;27.70;;;;;;5059264;28;20460;-70
2024/03/03 10:40:21;;;;;;;21.15;11.95;;;15.20;27.60;;;;;;5055915;28;20385;-71
2024/03/03 10:42:47;;;;;;;24.80;12.15;;;15.20;27.40;;;;;;5054086;28;20503;-70
2024/03/03 10:45:12;;;;;;;21.10;11.63;;;15.10;27.40;;;;;;5053780;28;20390;-70
2024/03/03 10:47:38;;;;;;;20.70;12.57;;;15.00;27.50;;;;;;5051661;28;20752;-70
2024/03/03 10:50:08;;;;;;;20.53;11.43;;;15.10;27.70;;;;;;5059626;28;20423;-72
2024/03/03 10:52:39;;;;;;;20.25;11.48;;;15.00;27.00;;;;;;5060163;28;20964;-71
2024/03/03 10:55:09;;;;;;;20.50;10.67;;;15.10;27.40;;;;;;5053659;28;20398;-70
2024/03/03 10:57:35;;;;;;;20.13;10.60;;;15.10;27.30;;;;;;5052499;28;20439;-72
2024/03/03 11:00:02;;;;;;;21.58;11.00;;;15.20;26.90;;;;;;5052500;28;20794;-71
2024/03/03 11:02:30;;;;;;;19.70;11.40;;;15.30;27.10;;;;;;5052733;28;20413;-70
2024/03/03 11:04:56;;;;;;;20.55;10.50;;;15.50;27.00;;;;;;5051654;28;20374;-68
2024/03/03 11:07:22;;;;;;;19.70;11.32;;;15.60;26.30;;;;;;5067712;28;20500;-69
2024/03/03 11:09:49;;;;;;;19.80;12.02;;;15.50;26.70;;;;;;5057938;28;20409;-75
2024/03/03 11:12:19;;;;;;;20.58;11.50;;;15.40;27.00;;;;;;5053869;28;20396;-75
2024/03/03 11:14:47;;;;;;;20.17;11.80;;;15.50;27.30;;;;;;5058925;28;20472;-76
2024/03/03 11:17:20;;;;;;;22.30;12.27;;;15.60;27.60;;;;;;5061137;28;20418;-77
2024/03/03 11:19:47;;;;;;;19.05;11.40;;;15.60;27.40;;;;;;5076137;28;20429;-76
2024/03/03 11:22:23;;;;;;;19.20;11.10;;;15.60;28.10;;;;;;5068719;28;20390;-75
2024/03/03 11:24:56;;;;;;;21.20;11.20;;;15.60;28.40;;;;;;5063998;28;20413;-75
2024/03/03 11:27:24;;;;;;;17.88;11.32;;;15.60;27.80;;;;;;5074498;28;20382;-71
2024/03/03 11:29:50;;;;;;;19.17;10.93;;;15.50;28.00;;;;;;5065978;28;20923;-70
2024/03/03 11:32:18;;;;;;;16.75;10.73;;;15.60;28.30;;;;;;5052112;28;20438;-68
2024/03/03 11:34:45;;;;;;;18.73;9.73;;;15.70;27.50;;;;;;5061253;28;20384;-68
2024/03/03 11:37:12;;;;;;;14.93;8.73;;;15.80;26.60;;;;;;5070480;28;20392;-70
2024/03/03 11:40:12;;;;;;;14.25;7.53;;;16.10;25.80;;;;;;5072099;28;20380;-69
2024/03/03 11:42:41;;;;;;;15.20;7.57;;;16.40;23.40;;;;;;5071766;28;20464;-70
2024/03/03 11:45:09;;;;;;;11.65;6.57;;;16.60;22.20;;;;;;5071866;28;20384;-69
2024/03/03 11:47:36;;;;;;;11.60;6.45;;;16.80;21.50;;;;;;5056913;28;20385;-69
2024/03/03 11:50:19;;;;;;;13.30;6.80;;;17.00;20.90;;;;;;5050552;28;20763;-70
2024/03/03 11:52:46;;;;;;;13.25;6.55;;;16.90;21.00;;;;;;5051963;28;20385;-67
2024/03/03 11:55:24;;;;;;;11.30;6.60;;;16.80;20.60;;;;;;5051882;28;20436;-70
2024/03/03 11:58:01;;;;;;;10.88;6.00;;;16.90;20.30;;;;;;5063071;28;20395;-71
2024/03/03 12:00:27;;;;;;;10.10;5.80;;;17.00;20.40;;;;;;5065909;28;20383;-71
2024/03/03 12:02:55;;;;;;;9.68;4.85;;;17.10;19.80;;;;;;5066254;28;20412;-71
2024/03/03 12:05:21;;;;;;;8.52;4.60;;;17.20;19.20;;;;;;5062804;28;20393;-70
2024/03/03 12:07:52;;;;;;;11.27;6.40;;;17.20;18.70;;;;;;5052500;28;20381;-70
2024/03/03 12:10:26;;;;;;;9.30;4.95;;;17.20;18.50;;;;;;5054284;28;20387;-72
2024/03/03 12:12:57;;;;;;;9.65;5.03;;;17.20;18.10;;;;;;5035131;28;20415;-75
2024/03/03 12:15:24;;;;;;;6.25;4.30;;;17.30;18.30;;;;;;5061424;28;20412;-74
2024/03/03 12:17:55;;;;;;;8.60;4.20;;;17.30;17.10;;;;;;5055228;28;20851;-73
2024/03/03 12:20:24;;;;;;;11.20;4.47;;;17.30;16.40;;;;;;5054248;28;20400;-75
2024/03/03 12:22:50;;;;;;;6.80;3.40;;;17.30;16.40;;;;;;5055922;28;20550;-74
2024/03/03 12:25:18;;;;;;;4.68;3.40;;;17.20;15.90;;;;;;5054094;28;20752;-74
2024/03/03 12:27:49;;;;;;;10.70;5.10;;;17.20;16.20;;;;;;5052774;28;20963;-75
2024/03/03 12:30:38;;;;;;;11.35;4.50;;;17.10;17.10;;;;;;5051754;28;20390;-74